Time;durP1;ratioP1;P1;durP2;ratioP2;P2;SDS_P1;SDS_P2;PMS_P1;PMS_P2;Temp;Humidity;BMP_temperature;BMP_pressure;BME280_temperature;BME280_humidity;BME280_pressure;Samples;Min_cycle;Max_cycle;Signal;HPM_P1;HPM_P2
2022/04/25 00:00:16;;;;;;;8.70;7.50;;;;;;;9.69;69.98;98886.73;106193;1273;138474;-76
2022/04/25 00:03:08;;;;;;;9.80;6.90;;;;;;;9.69;70.05;98887.45;106236;1273;109544;-75
2022/04/25 00:05:40;;;;;;;8.70;7.70;;;;;;;9.71;70.17;98883.90;106444;1272;97851;-76
2022/04/25 00:08:12;;;;;;;9.90;7.50;;;;;;;9.71;70.14;98883.91;106147;1273;138178;-76
2022/04/25 00:10:44;;;;;;;7.70;6.80;;;;;;;9.72;70.14;98887.66;106256;1273;111497;-76
2022/04/25 00:13:16;;;;;;;9.00;7.60;;;;;;;9.72;70.13;98884.20;106090;1273;138661;-77
2022/04/25 00:15:48;;;;;;;9.60;7.40;;;;;;;9.73;70.22;98885.38;106259;1273;107756;-74
2022/04/25 00:18:20;;;;;;;8.50;7.40;;;;;;;9.75;70.36;98883.02;106143;1273;139580;-76
2022/04/25 00:20:53;;;;;;;9.40;7.40;;;;;;;9.73;70.19;98881.70;106309;1272;97709;-76
2022/04/25 00:23:25;;;;;;;8.40;7.10;;;;;;;9.68;70.13;98877.73;106303;1274;112456;-76
2022/04/25 00:25:57;;;;;;;7.40;6.50;;;;;;;9.64;70.17;98876.05;106244;1274;138324;-76
2022/04/25 00:28:29;;;;;;;7.80;7.00;;;;;;;9.61;70.18;98872.25;106289;1273;108837;-75
2022/04/25 00:31:01;;;;;;;8.20;7.40;;;;;;;9.56;70.17;98873.36;106154;1273;138241;-75
2022/04/25 00:33:32;;;;;;;7.80;6.60;;;;;;;9.53;70.44;98874.55;106245;1273;97088;-75
2022/04/25 00:36:05;;;;;;;7.50;6.80;;;;;;;9.53;70.53;98876.30;106367;1273;112230;-75
2022/04/25 00:38:37;;;;;;;8.70;7.20;;;;;;;9.53;70.72;98874.52;106540;1273;138010;-75
2022/04/25 00:41:10;;;;;;;8.30;7.30;;;;;;;9.53;70.97;98871.40;106485;1273;106622;-74
2022/04/25 00:43:41;;;;;;;7.30;6.50;;;;;;;9.50;70.91;98873.27;106208;1273;139319;-74
2022/04/25 00:46:23;;;;;;;8.20;7.00;;;;;;;9.47;70.95;98873.96;106298;1274;97832;-74
2022/04/25 00:48:55;;;;;;;8.10;7.10;;;;;;;9.43;71.30;98877.26;106257;1273;139326;-74
2022/04/25 00:51:27;;;;;;;9.30;7.20;;;;;;;9.46;71.32;98879.91;106269;1274;108993;-73
2022/04/25 00:53:59;;;;;;;9.70;7.20;;;;;;;9.47;71.44;98878.48;106267;1273;108286;-74
2022/04/25 00:56:32;;;;;;;8.20;6.60;;;;;;;9.49;71.43;98878.20;106119;1273;138412;-75
2022/04/25 00:59:05;;;;;;;7.70;6.90;;;;;;;9.52;71.52;98872.34;106258;1273;97860;-74
2022/04/25 01:01:38;;;;;;;8.90;7.00;;;;;;;9.54;71.44;98873.30;106097;1273;138280;-75
2022/04/25 01:04:11;;;;;;;8.10;6.60;;;;;;;9.51;71.38;98866.48;106280;1274;108738;-75
2022/04/25 01:06:43;;;;;;;8.20;6.30;;;;;;;9.49;71.32;98863.98;106138;1273;138419;-74
2022/04/25 01:09:15;;;;;;;6.50;5.70;;;;;;;9.45;71.27;98862.59;106214;1273;97832;-74
2022/04/25 01:11:48;;;;;;;8.50;6.10;;;;;;;9.44;71.42;98859.02;106314;1274;97820;-74
2022/04/25 01:14:21;;;;;;;7.30;6.30;;;;;;;9.37;71.41;98858.48;106158;1273;138177;-75
2022/04/25 01:16:54;;;;;;;7.30;6.20;;;;;;;9.35;71.57;98857.90;106286;1273;108987;-75
2022/04/25 01:19:26;;;;;;;8.10;6.50;;;;;;;9.31;71.70;98852.69;106121;1273;138939;-74
2022/04/25 01:22:00;;;;;;;7.40;6.30;;;;;;;9.26;71.76;98850.20;106258;1273;97811;-74
2022/04/25 01:27:22;;;;;;;8.00;5.90;;;;;;;9.24;72.06;98837.48;106252;1273;112000;-73
2022/04/25 01:29:55;;;;;;;7.10;5.80;;;;;;;9.17;71.92;98838.36;106254;1272;108586;-74
2022/04/25 01:32:28;;;;;;;6.80;6.10;;;;;;;9.17;72.30;98840.95;106126;1274;138184;-75
2022/04/25 01:35:00;;;;;;;6.50;5.50;;;;;;;9.17;72.19;98837.66;106312;1273;97847;-75
2022/04/25 01:37:32;;;;;;;6.40;5.80;;;;;;;9.17;72.22;98838.70;106155;1273;138161;-75
2022/04/25 01:40:05;;;;;;;7.40;5.80;;;;;;;9.17;72.21;98834.72;106239;1273;112588;-74
2022/04/25 01:42:37;;;;;;;7.20;5.80;;;;;;;9.15;72.22;98831.28;106333;1273;138293;-75
2022/04/25 01:45:11;;;;;;;6.90;5.80;;;;;;;9.16;72.24;98831.98;106273;1273;108841;-75
2022/04/25 01:47:44;;;;;;;6.80;5.90;;;;;;;9.13;72.06;98828.65;106809;1273;97838;-76
2022/04/25 01:50:16;;;;;;;6.10;5.50;;;;;;;9.08;72.10;98828.70;106582;1273;138902;-75
2022/04/25 01:52:49;;;;;;;7.60;5.90;;;;;;;9.07;72.23;98830.65;106315;1273;112474;-76
2022/04/25 01:55:21;;;;;;;6.20;5.60;;;;;;;9.07;72.33;98831.69;106159;1273;138271;-75
2022/04/25 01:57:53;;;;;;;8.20;6.00;;;;;;;9.07;72.50;98833.59;106253;1273;108829;-77
2022/04/25 02:00:26;;;;;;;6.60;5.90;;;;;;;9.07;72.57;98839.63;106139;1273;138357;-77
2022/04/25 02:02:57;;;;;;;7.00;5.80;;;;;;;9.06;72.48;98838.19;106199;1273;97918;-76
2022/04/25 02:05:30;;;;;;;8.20;6.10;;;;;;;9.04;72.47;98834.60;106239;1273;112352;-77
2022/04/25 02:08:02;;;;;;;7.00;6.00;;;;;;;9.03;72.51;98837.06;106081;1273;138363;-77
2022/04/25 02:10:34;;;;;;;7.60;5.80;;;;;;;9.02;72.62;98835.43;106144;1273;109049;-76
2022/04/25 02:13:06;;;;;;;7.30;6.20;;;;;;;9.00;72.70;98832.22;106044;1273;138773;-77
2022/04/25 02:15:38;;;;;;;7.20;5.80;;;;;;;8.99;72.63;98831.58;106181;1273;98122;-77
2022/04/25 02:18:11;;;;;;;6.30;5.60;;;;;;;8.98;72.70;98832.68;106212;1273;112272;-77
2022/04/25 02:20:43;;;;;;;8.30;6.30;;;;;;;8.94;72.92;98823.81;106122;1273;138204;-77
2022/04/25 02:23:16;;;;;;;7.40;6.50;;;;;;;8.93;72.90;98823.89;106070;1273;157777;-77
2022/04/25 02:25:48;;;;;;;6.80;6.10;;;;;;;8.91;72.91;98824.52;106092;1273;138656;-77
2022/04/25 02:28:20;;;;;;;6.90;6.20;;;;;;;8.87;72.91;98828.19;106140;1273;97830;-76
2022/04/25 02:30:52;;;;;;;7.20;6.10;;;;;;;8.85;73.21;98826.73;106177;1273;139202;-76
2022/04/25 02:33:24;;;;;;;8.20;6.70;;;;;;;8.86;73.27;98828.90;106279;1273;107802;-77
2022/04/25 02:35:56;;;;;;;6.90;6.10;;;;;;;8.86;73.34;98824.73;106249;1273;107405;-77
2022/04/25 02:38:29;;;;;;;8.00;6.10;;;;;;;8.85;73.27;98826.72;106113;1273;138349;-77
2022/04/25 02:41:08;;;;;;;9.90;6.90;;;;;;;8.83;73.25;98824.05;106264;1273;97852;-77
2022/04/25 02:43:41;;;;;;;8.20;5.90;;;;;;;8.82;73.14;98828.80;106061;1273;138357;-77
2022/04/25 02:46:15;;;;;;;8.30;6.00;;;;;;;8.82;73.28;98829.80;106280;1273;106215;-77
2022/04/25 02:48:48;;;;;;;7.60;6.50;;;;;;;8.83;73.34;98829.93;106531;1273;139080;-75
2022/04/25 02:51:20;;;;;;;9.50;6.60;;;;;;;8.82;73.32;98829.62;106238;1273;97928;-76
2022/04/25 02:53:52;;;;;;;8.00;6.00;;;;;;;8.80;73.27;98828.65;106268;1273;98003;-76
2022/04/25 02:56:24;;;;;;;6.70;5.90;;;;;;;8.80;73.42;98829.37;106109;1273;137982;-76
2022/04/25 02:58:57;;;;;;;7.80;6.40;;;;;;;8.79;73.44;98830.77;106364;1273;108798;-77
2022/04/25 03:01:29;;;;;;;7.00;5.90;;;;;;;8.79;73.33;98829.39;106100;1273;138608;-77
2022/04/25 03:04:01;;;;;;;7.80;6.30;;;;;;;8.77;73.41;98826.73;106175;1273;97823;-77
2022/04/25 03:06:34;;;;;;;7.40;6.60;;;;;;;8.78;73.76;98830.29;106097;1273;139106;-77
2022/04/25 03:09:06;;;;;;;7.60;6.60;;;;;;;8.77;73.63;98832.44;106178;1273;112563;-77
2022/04/25 03:11:38;;;;;;;7.10;6.20;;;;;;;8.77;73.85;98835.56;106154;1273;107619;-77
2022/04/25 03:14:10;;;;;;;8.10;6.50;;;;;;;8.80;73.88;98840.30;106126;1273;138154;-78
2022/04/25 03:16:42;;;;;;;8.20;6.40;;;;;;;8.78;73.55;98844.17;106199;1273;97796;-77
2022/04/25 03:19:13;;;;;;;8.20;6.80;;;;;;;8.77;73.75;98845.45;106116;1273;138067;-76
2022/04/25 03:21:46;;;;;;;7.90;6.00;;;;;;;8.75;73.80;98847.11;106200;1273;112601;-76
2022/04/25 03:24:18;;;;;;;8.70;7.30;;;;;;;8.75;73.81;98847.94;106321;1273;107895;-76
2022/04/25 03:26:50;;;;;;;8.00;6.80;;;;;;;8.74;73.91;98846.62;106153;1273;138060;-75
2022/04/25 03:29:22;;;;;;;8.00;6.30;;;;;;;8.73;74.02;98843.39;106262;1273;97957;-76
2022/04/25 03:31:54;;;;;;;10.10;6.60;;;;;;;8.74;74.13;98841.59;106131;1273;139155;-76
2022/04/25 03:34:26;;;;;;;8.10;7.20;;;;;;;8.77;74.14;98838.86;106332;1273;112218;-77
2022/04/25 03:36:58;;;;;;;7.10;6.40;;;;;;;8.76;74.11;98843.95;106114;1273;139427;-76
2022/04/25 03:39:30;;;;;;;9.50;7.40;;;;;;;8.77;74.14;98844.55;106306;1273;106930;-76
2022/04/25 03:42:03;;;;;;;8.80;7.00;;;;;;;8.77;74.15;98843.88;106302;1272;98615;-76
2022/04/25 03:44:35;;;;;;;8.30;6.60;;;;;;;8.78;74.21;98843.29;106491;1273;138094;-75
2022/04/25 03:47:07;;;;;;;8.20;7.30;;;;;;;8.79;74.21;98848.27;106284;1273;111216;-76
2022/04/25 03:49:41;;;;;;;8.00;7.00;;;;;;;8.82;74.39;98845.77;106198;1273;138168;-77
2022/04/25 03:52:13;;;;;;;7.20;6.50;;;;;;;8.82;74.17;98851.98;106268;1273;107827;-77
2022/04/25 03:57:35;;;;;;;9.40;7.00;;;;;;;8.85;74.11;98854.45;106248;1273;98016;-77
2022/04/25 04:00:10;;;;;;;9.10;7.30;;;;;;;8.84;74.04;98857.09;106225;1273;112492;-76
2022/04/25 04:02:45;;;;;;;11.90;6.60;;;;;;;8.85;74.10;98856.70;106362;1273;139735;-76
2022/04/25 04:05:18;;;;;;;9.10;7.70;;;;;;;8.87;74.15;98857.83;106597;1273;106721;-77
2022/04/25 04:07:50;;;;;;;8.00;7.20;;;;;;;8.90;74.19;98863.02;106162;1273;138622;-76
2022/04/25 04:10:22;;;;;;;9.00;7.50;;;;;;;8.93;74.19;98863.90;106334;1273;98271;-76
2022/04/25 04:12:55;;;;;;;8.50;7.70;;;;;;;8.97;74.21;98870.84;106153;1273;138863;-77
2022/04/25 04:15:33;;;;;;;9.90;8.00;;;;;;;9.01;74.14;98871.55;106279;1273;108387;-77
2022/04/25 04:18:06;;;;;;;9.70;8.10;;;;;;;9.03;74.00;98870.58;106348;1272;108104;-77
2022/04/25 04:20:38;;;;;;;9.00;7.70;;;;;;;9.01;73.89;98874.30;106323;1273;138560;-76
2022/04/25 04:23:11;;;;;;;8.60;7.70;;;;;;;9.01;73.93;98873.77;106302;1274;97835;-77
2022/04/25 04:25:43;;;;;;;8.90;8.00;;;;;;;9.00;73.88;98876.27;106195;1274;138553;-77
2022/04/25 04:28:15;;;;;;;10.60;8.50;;;;;;;8.98;73.94;98880.17;106311;1273;108786;-77
2022/04/25 04:30:47;;;;;;;9.70;8.60;;;;;;;8.95;73.89;98884.98;106266;1273;139691;-77
2022/04/25 04:33:19;;;;;;;9.20;8.20;;;;;;;8.94;74.02;98886.91;106238;1273;98530;-77
2022/04/25 04:38:41;;;;;;;9.30;8.40;;;;;;;8.95;74.29;98892.24;106409;1273;138938;-77
2022/04/25 04:41:13;;;;;;;9.90;8.90;;;;;;;8.97;74.25;98896.32;106283;1273;108810;-78
2022/04/25 04:43:45;;;;;;;10.00;9.00;;;;;;;8.99;74.41;98898.14;106171;1273;139490;-77
2022/04/25 04:46:17;;;;;;;10.70;8.70;;;;;;;9.01;74.35;98904.14;106269;1272;97812;-77
2022/04/25 04:48:49;;;;;;;12.40;9.10;;;;;;;9.02;74.48;98908.05;106317;1272;138569;-77
2022/04/25 04:51:21;;;;;;;10.60;9.00;;;;;;;9.03;74.33;98906.77;106294;1272;114199;-77
2022/04/25 04:53:53;;;;;;;10.70;9.60;;;;;;;9.01;74.23;98910.34;106313;1272;108492;-77
2022/04/25 04:56:25;;;;;;;10.50;9.40;;;;;;;9.01;74.40;98908.80;106184;1273;138876;-77
2022/04/25 04:58:58;;;;;;;11.20;10.00;;;;;;;9.02;74.52;98910.81;106303;1273;97813;-77
2022/04/25 05:01:30;;;;;;;10.00;9.00;;;;;;;9.06;74.57;98912.38;106835;1273;138640;-77
2022/04/25 05:04:03;;;;;;;10.20;9.20;;;;;;;9.10;74.45;98912.34;106326;1273;112177;-76
2022/04/25 05:06:35;;;;;;;11.40;9.60;;;;;;;9.12;74.53;98912.94;106238;1273;138764;-76
2022/04/25 05:09:07;;;;;;;10.40;9.20;;;;;;;9.17;74.54;98912.23;106373;1274;108758;-77
2022/04/25 05:11:40;;;;;;;10.60;9.20;;;;;;;9.20;74.57;98914.34;106284;1273;97824;-77
2022/04/25 05:14:14;;;;;;;12.10;9.20;;;;;;;9.21;74.52;98915.11;106483;1273;138194;-76
2022/04/25 05:16:46;;;;;;;10.40;9.30;;;;;;;9.24;74.51;98916.52;106690;1272;112473;-75
2022/04/25 05:19:18;;;;;;;11.30;10.10;;;;;;;9.27;74.45;98912.23;106194;1273;138509;-76
2022/04/25 05:21:50;;;;;;;10.80;9.70;;;;;;;9.27;74.27;98914.15;106317;1272;108962;-77
2022/04/25 05:24:22;;;;;;;11.30;10.10;;;;;;;9.27;74.41;98913.96;106296;1273;97810;-76
2022/04/25 05:26:54;;;;;;;10.70;9.60;;;;;;;9.29;74.26;98914.06;106215;1274;138233;-77
2022/04/25 05:29:26;;;;;;;10.80;9.70;;;;;;;9.27;74.20;98912.07;106282;1273;112612;-77
2022/04/25 05:31:59;;;;;;;12.40;10.00;;;;;;;9.27;74.41;98912.41;106188;1273;138471;-77
2022/04/25 05:34:42;;;;;;;10.60;9.60;;;;;;;9.33;74.53;98917.67;106260;1273;108844;-77
2022/04/25 05:37:14;;;;;;;12.20;10.40;;;;;;;9.35;74.45;98918.48;106138;1273;138640;-77
2022/04/25 05:39:46;;;;;;;13.70;11.40;;;;;;;9.36;74.42;98922.38;106238;1273;98597;-77
2022/04/25 05:42:17;;;;;;;10.60;9.50;;;;;;;9.36;74.42;98922.20;106245;1273;110090;-77
2022/04/25 05:44:50;;;;;;;10.90;9.80;;;;;;;9.40;74.45;98923.08;106158;1273;138104;-77
2022/04/25 05:47:22;;;;;;;10.90;9.70;;;;;;;9.45;74.50;98922.83;106261;1273;109065;-77
2022/04/25 05:52:44;;;;;;;10.70;9.20;;;;;;;9.50;74.11;98928.63;106273;1273;97833;-77
2022/04/25 05:55:16;;;;;;;11.40;9.20;;;;;;;9.53;74.30;98936.48;106169;1273;138553;-78
2022/04/25 05:57:48;;;;;;;9.40;8.50;;;;;;;9.57;74.20;98936.64;106210;1273;108955;-76
2022/04/25 06:00:21;;;;;;;9.90;8.90;;;;;;;9.60;74.08;98933.02;106283;1273;108869;-76
2022/04/25 06:02:55;;;;;;;11.60;9.70;;;;;;;9.61;74.09;98933.31;106464;1272;138256;-77
2022/04/25 06:05:27;;;;;;;11.10;8.70;;;;;;;9.63;73.97;98938.92;106316;1273;97944;-77
2022/04/25 06:08:00;;;;;;;10.90;9.00;;;;;;;9.66;74.08;98941.02;106208;1272;138676;-76
2022/04/25 06:10:32;;;;;;;9.50;8.60;;;;;;;9.66;73.87;98944.15;106202;1273;107429;-77
2022/04/25 06:13:04;;;;;;;9.40;8.50;;;;;;;9.71;74.09;98947.77;106014;1271;141472;-75
2022/04/25 06:15:36;;;;;;;10.10;9.10;;;;;;;9.75;74.03;98947.92;106221;1273;98050;-77
2022/04/25 06:18:09;;;;;;;12.00;10.80;;;;;;;9.77;74.05;98951.08;106279;1271;97818;-73
2022/04/25 06:20:40;;;;;;;10.00;8.80;;;;;;;9.79;73.79;98954.63;106149;1271;138463;-80
2022/04/25 06:23:13;;;;;;;9.50;8.60;;;;;;;9.82;73.87;98953.95;106252;1271;108991;-82
2022/04/25 06:25:44;;;;;;;10.10;9.10;;;;;;;9.90;73.91;98957.23;106078;1273;138476;-81
2022/04/25 06:28:18;;;;;;;10.20;9.10;;;;;;;9.94;73.72;98954.92;106148;1273;97930;-77
2022/04/25 06:30:49;;;;;;;9.00;8.20;;;;;;;9.93;73.69;98954.43;106074;1273;138373;-78
2022/04/25 06:33:21;;;;;;;10.10;8.60;;;;;;;9.91;73.52;98953.50;106123;1271;112564;-83
2022/04/25 06:35:53;;;;;;;10.00;8.90;;;;;;;9.89;73.45;98957.46;106225;1273;108082;-77
2022/04/25 06:38:26;;;;;;;9.70;8.60;;;;;;;9.88;73.36;98959.39;105992;1273;138767;-77
2022/04/25 06:40:58;;;;;;;12.10;9.30;;;;;;;9.88;73.52;98957.31;106058;1273;97934;-78
2022/04/25 06:43:31;;;;;;;10.50;9.20;;;;;;;9.95;73.80;98954.72;106115;1273;139046;-78
2022/04/25 06:46:03;;;;;;;10.40;8.80;;;;;;;10.00;73.74;98957.92;106213;1273;111485;-78
2022/04/25 06:48:35;;;;;;;10.50;9.10;;;;;;;9.97;73.40;98959.77;106115;1273;139511;-77
2022/04/25 06:51:07;;;;;;;14.30;11.30;;;;;;;9.95;73.60;98957.63;106122;1273;105658;-77
2022/04/25 06:53:39;;;;;;;10.60;9.50;;;;;;;9.95;73.66;98959.73;106252;1273;97897;-78
2022/04/25 06:56:11;;;;;;;10.50;9.40;;;;;;;9.92;73.45;98963.52;106062;1273;138977;-76
2022/04/25 06:58:43;;;;;;;11.40;9.80;;;;;;;9.89;73.50;98965.08;106217;1271;111504;-77
2022/04/25 07:01:15;;;;;;;10.40;9.20;;;;;;;9.88;73.49;98969.14;106203;1273;138678;-76
2022/04/25 07:03:47;;;;;;;10.40;9.40;;;;;;;9.83;73.45;98969.91;106634;1273;108054;-78
2022/04/25 07:06:19;;;;;;;11.40;9.10;;;;;;;9.79;73.53;98974.61;106111;1273;97816;-77
2022/04/25 07:08:52;;;;;;;11.00;8.70;;;;;;;9.80;73.64;98973.51;106098;1273;139300;-77
2022/04/25 07:11:24;;;;;;;9.80;8.80;;;;;;;9.79;73.49;98975.10;106232;1272;112555;-76
2022/04/25 07:13:56;;;;;;;9.40;8.40;;;;;;;9.76;73.38;98976.14;106203;1273;138257;-77
2022/04/25 07:16:28;;;;;;;9.60;8.60;;;;;;;9.75;73.67;98981.92;106240;1273;109394;-72
2022/04/25 07:19:00;;;;;;;9.90;8.20;;;;;;;9.78;73.77;98986.82;106107;1273;139831;-76
2022/04/25 07:30:15;;;;;;;9.50;8.50;;;;;;;9.91;74.10;98994.50;106262;1273;108340;-75
2022/04/25 07:32:48;;;;;;;10.00;9.00;;;;;;;9.93;74.04;98995.59;106311;1273;139481;-76
2022/04/25 07:35:21;;;;;;;9.20;8.30;;;;;;;9.96;73.94;98997.00;106507;1273;97762;-75
2022/04/25 07:37:55;;;;;;;10.10;7.90;;;;;;;9.96;73.83;98998.23;106158;1273;139038;-76
2022/04/25 07:40:27;;;;;;;9.70;8.70;;;;;;;9.94;73.78;99000.74;106109;1273;109085;-75
2022/04/25 07:42:59;;;;;;;9.90;8.80;;;;;;;9.95;73.91;99004.00;105968;1273;138476;-74
2022/04/25 07:45:32;;;;;;;10.90;8.90;;;;;;;9.95;73.80;99006.08;105910;1273;97847;-74
2022/04/25 07:48:05;;;;;;;11.40;8.90;;;;;;;9.95;73.93;99008.50;106335;1273;97868;-77
2022/04/25 07:50:38;;;;;;;10.80;9.70;;;;;;;9.94;73.72;99012.56;106055;1273;138469;-75
2022/04/25 07:53:11;;;;;;;9.80;8.90;;;;;;;9.91;73.71;99015.84;106340;1273;108017;-75
2022/04/25 07:55:43;;;;;;;9.40;8.30;;;;;;;9.87;73.66;99014.99;106030;1273;138543;-75
2022/04/25 07:58:15;;;;;;;10.20;9.20;;;;;;;9.84;73.80;99017.58;106144;1273;97847;-74
2022/04/25 08:00:48;;;;;;;11.20;10.10;;;;;;;9.85;74.04;99018.38;106359;1273;97947;-75
2022/04/25 08:03:21;;;;;;;9.90;8.90;;;;;;;9.86;74.14;99023.18;106350;1273;139282;-76
2022/04/25 08:05:53;;;;;;;11.30;9.00;;;;;;;9.87;74.03;99021.77;106303;1273;109241;-74
2022/04/25 08:08:26;;;;;;;12.00;9.20;;;;;;;9.89;73.96;99024.29;106189;1274;138434;-75
2022/04/25 08:10:58;;;;;;;10.90;8.70;;;;;;;9.88;73.88;99031.13;106334;1274;97962;-76
2022/04/25 08:19:09;;;;;;;10.10;8.60;;;;;;;9.94;74.05;99032.74;106126;1274;138280;-76
2022/04/25 08:21:42;;;;;;;9.70;8.70;;;;;;;9.98;74.11;99039.11;106259;1272;108876;-76
2022/04/25 08:24:17;;;;;;;9.60;8.60;;;;;;;10.03;74.14;99034.19;106224;1271;97827;-76
2022/04/25 08:26:49;;;;;;;13.90;11.20;;;;;;;10.07;73.90;99036.80;106182;1273;139902;-76
2022/04/25 08:29:21;;;;;;;10.30;8.70;;;;;;;10.09;73.88;99039.61;106159;1273;112423;-74
2022/04/25 08:31:54;;;;;;;10.90;8.20;;;;;;;10.13;73.74;99037.35;106181;1271;138628;-76
2022/04/25 08:34:26;;;;;;;12.20;8.50;;;;;;;10.14;73.72;99040.05;106288;1273;107263;-77
2022/04/25 08:36:59;;;;;;;9.10;8.10;;;;;;;10.19;73.72;99042.07;106227;1271;97823;-77
2022/04/25 08:39:31;;;;;;;8.30;7.50;;;;;;;10.23;73.54;99042.94;106250;1272;138002;-77
2022/04/25 08:42:07;;;;;;;10.90;7.70;;;;;;;10.28;73.44;99043.06;106484;1271;112077;-76
2022/04/25 08:44:59;;;;;;;10.60;7.00;;;;;;;10.34;73.21;99042.21;106059;1271;138595;-76
2022/04/25 08:47:40;;;;;;;9.00;6.80;;;;;;;10.39;72.93;99050.52;106232;1274;108958;-77
2022/04/25 08:50:13;;;;;;;8.40;7.30;;;;;;;10.42;73.10;99049.98;106121;1273;139970;-78
2022/04/25 08:52:46;;;;;;;9.50;6.80;;;;;;;10.45;73.13;99048.79;106271;1271;97815;-76
2022/04/25 08:55:19;;;;;;;7.90;6.40;;;;;;;10.43;72.98;99048.02;106146;1273;138921;-77
2022/04/25 08:57:53;;;;;;;9.00;7.50;;;;;;;10.41;72.92;99048.45;106313;1274;107746;-76
2022/04/25 09:00:25;;;;;;;8.80;6.80;;;;;;;10.40;72.91;99051.13;106298;1273;109134;-78
2022/04/25 09:02:57;;;;;;;7.30;6.20;;;;;;;10.38;73.07;99049.84;106476;1273;138774;-78
2022/04/25 09:05:30;;;;;;;10.70;6.70;;;;;;;10.41;73.13;99054.73;106398;1274;97816;-77
2022/04/25 09:08:02;;;;;;;7.00;6.30;;;;;;;10.46;73.14;99058.11;106152;1273;138472;-76
2022/04/25 09:10:36;;;;;;;7.40;5.80;;;;;;;10.52;73.33;99060.42;106167;1273;107861;-77
2022/04/25 09:13:12;;;;;;;7.20;5.80;;;;;;;10.59;73.20;99068.26;106065;1273;138750;-77
2022/04/25 09:15:44;;;;;;;6.30;5.70;;;;;;;10.62;72.79;99067.43;106144;1273;97828;-76
2022/04/25 09:18:17;;;;;;;7.60;5.70;;;;;;;10.63;72.58;99071.34;106254;1273;97856;-79
2022/04/25 09:20:52;;;;;;;7.00;5.50;;;;;;;10.61;72.23;99078.75;106399;1273;138293;-77
2022/04/25 09:23:24;;;;;;;7.90;6.70;;;;;;;10.63;72.13;99080.73;106269;1273;108831;-77
2022/04/25 09:26:19;;;;;;;7.00;5.50;;;;;;;10.73;72.45;99083.86;105983;1273;140339;-79
2022/04/25 09:28:55;;;;;;;5.60;5.00;;;;;;;10.83;72.06;99082.66;106113;1273;97958;-78
2022/04/25 09:31:28;;;;;;;7.20;4.90;;;;;;;10.92;72.04;99085.64;106264;1273;138466;-77
2022/04/25 09:34:59;;;;;;;6.30;5.00;;;;;;;11.02;71.81;99085.67;106376;1273;111480;-78
2022/04/25 09:37:10;;;;;;;9.20;5.50;;;;;;;11.14;71.44;99080.16;106148;1273;109126;-84
2022/04/25 09:39:43;;;;;;;6.10;5.10;;;;;;;11.20;71.51;99084.54;105931;1273;138459;-78
2022/04/25 09:42:15;;;;;;;5.80;4.50;;;;;;;11.26;71.26;99085.92;106125;1273;97869;-77
2022/04/25 09:44:58;;;;;;;7.10;5.00;;;;;;;11.25;70.68;99088.75;106085;1273;138532;-76
2022/04/25 09:47:32;;;;;;;6.50;5.00;;;;;;;11.20;70.61;99092.86;106153;1273;112748;-77
2022/04/25 09:50:08;;;;;;;7.30;5.10;;;;;;;11.18;70.79;99100.27;106359;1273;138578;-77
2022/04/25 09:52:56;;;;;;;6.90;5.50;;;;;;;11.22;70.89;99100.77;106204;1273;108852;-77
2022/04/25 09:55:30;;;;;;;5.70;5.00;;;;;;;11.25;70.77;99097.84;106092;1273;138526;-76
2022/04/25 09:58:17;;;;;;;5.70;4.80;;;;;;;11.24;70.48;99105.16;106626;1273;97842;-76
2022/04/25 10:00:53;;;;;;;7.20;5.20;;;;;;;11.27;70.53;99106.27;106451;1273;112528;-78
2022/04/25 10:03:36;;;;;;;6.00;5.00;;;;;;;11.28;70.46;99108.99;107036;1273;138644;-76
2022/04/25 10:06:09;;;;;;;6.20;4.90;;;;;;;11.30;70.54;99112.52;106627;1273;139868;-76
2022/04/25 10:08:42;;;;;;;6.90;4.70;;;;;;;11.35;70.30;99111.77;106411;1273;97921;-76
2022/04/25 10:11:17;;;;;;;6.20;4.40;;;;;;;11.40;69.96;99112.87;106312;1273;139092;-76
2022/04/25 10:13:49;;;;;;;6.60;4.90;;;;;;;11.48;69.92;99120.06;106438;1273;112573;-77
2022/04/25 10:16:22;;;;;;;4.80;4.10;;;;;;;11.58;69.74;99119.58;106258;1273;109021;-76
2022/04/25 10:18:55;;;;;;;6.60;4.40;;;;;;;11.65;69.34;99123.67;106188;1273;138882;-77
2022/04/25 10:21:29;;;;;;;5.00;4.50;;;;;;;11.69;68.96;99125.04;106200;1273;97856;-78
2022/04/25 10:24:01;;;;;;;5.40;4.80;;;;;;;11.76;68.55;99120.84;106223;1273;139105;-77
2022/04/25 10:26:34;;;;;;;6.50;4.80;;;;;;;11.80;68.32;99123.77;106312;1273;112483;-76
2022/04/25 10:29:11;;;;;;;6.50;4.90;;;;;;;11.88;68.31;99128.41;106313;1273;138749;-76
2022/04/25 10:31:46;;;;;;;7.40;6.40;;;;;;;11.97;68.33;99116.90;106506;1273;108766;-77
2022/04/25 10:34:18;;;;;;;9.70;6.10;;;;;;;12.06;68.29;99117.82;107126;1273;96734;-78
2022/04/25 10:36:53;;;;;;;9.20;5.70;;;;;;;12.08;67.69;99118.00;106173;1273;137554;-77
2022/04/25 10:39:27;;;;;;;5.60;5.00;;;;;;;12.13;67.81;99121.40;106303;1273;111923;-76
2022/04/25 10:45:00;;;;;;;6.30;4.80;;;;;;;12.23;67.51;99129.07;107774;1273;107680;-78
2022/04/25 10:47:32;;;;;;;6.50;4.90;;;;;;;12.19;67.28;99133.45;106542;1273;138595;-73
2022/04/25 10:50:12;;;;;;;7.40;6.20;;;;;;;12.18;67.22;99134.70;106247;1273;98355;-74
2022/04/25 10:52:55;;;;;;;6.40;5.40;;;;;;;12.19;67.09;99139.56;107791;1272;111101;-74
2022/04/25 10:55:47;;;;;;;8.20;5.10;;;;;;;12.14;66.83;99139.83;106798;1273;138125;-73
2022/04/25 10:58:21;;;;;;;6.00;4.90;;;;;;;12.07;66.63;99141.56;106155;1273;109030;-73
2022/04/25 11:00:55;;;;;;;7.20;5.20;;;;;;;12.01;66.61;99146.98;106385;1272;138453;-74
2022/04/25 11:03:30;;;;;;;7.90;6.40;;;;;;;11.96;66.77;99148.48;106310;1273;97916;-74
2022/04/25 11:06:06;;;;;;;6.50;5.70;;;;;;;11.93;66.66;99151.81;106574;1271;138255;-74
2022/04/25 11:08:40;;;;;;;7.50;6.30;;;;;;;11.91;66.72;99151.55;106379;1272;108848;-75
2022/04/25 11:11:20;;;;;;;10.40;9.20;;;;;;;11.94;66.83;99152.94;106921;1273;139209;-74
2022/04/25 11:14:18;;;;;;;9.90;8.90;;;;;;;11.99;66.79;99158.95;106801;1274;97844;-74
2022/04/25 11:17:12;;;;;;;9.20;8.10;;;;;;;12.03;66.53;99160.09;106162;1271;97924;-74
2022/04/25 11:19:54;;;;;;;7.40;6.50;;;;;;;12.04;66.32;99163.55;106246;1273;111542;-76
2022/04/25 11:22:54;;;;;;;10.80;7.30;;;;;;;12.05;66.35;99165.80;106179;1274;108856;-74
2022/04/25 11:25:43;;;;;;;7.00;6.30;;;;;;;12.07;66.16;99162.16;106491;1273;142208;-73
2022/04/25 11:28:17;;;;;;;9.10;7.10;;;;;;;12.06;66.10;99164.33;106444;1272;97837;-73
2022/04/25 11:31:28;;;;;;;10.40;9.40;;;;;;;12.11;66.24;99164.75;106039;1274;137671;-75
2022/04/25 11:34:02;;;;;;;9.10;7.30;;;;;;;12.19;65.92;99163.96;106582;1273;112509;-75
2022/04/25 11:36:39;;;;;;;7.00;6.30;;;;;;;12.23;65.69;99166.17;106060;1273;138008;-74
2022/04/25 11:42:09;;;;;;;8.20;6.10;;;;;;;12.30;65.45;99174.11;105940;1273;137864;-74
2022/04/25 11:44:41;;;;;;;6.90;6.20;;;;;;;12.36;65.30;99174.48;107103;1272;97960;-75
2022/04/25 11:47:13;;;;;;;8.40;6.90;;;;;;;12.38;65.13;99178.71;106037;1273;111621;-75
2022/04/25 11:49:46;;;;;;;7.50;6.70;;;;;;;12.39;64.98;99182.16;105813;1273;138284;-75
2022/04/25 11:52:20;;;;;;;9.00;6.00;;;;;;;12.37;64.96;99181.56;106020;1273;108575;-74
2022/04/25 11:54:52;;;;;;;8.10;5.50;;;;;;;12.32;64.78;99181.14;107283;1272;138672;-75
2022/04/25 11:57:25;;;;;;;7.50;6.10;;;;;;;12.28;64.83;99181.54;106016;1273;99427;-75
2022/04/25 12:00:16;;;;;;;6.20;5.20;;;;;;;12.27;64.75;99181.80;106258;1273;138766;-75
2022/04/25 12:02:49;;;;;;;7.90;5.20;;;;;;;12.26;64.91;99182.71;106429;1272;107745;-74
2022/04/25 12:05:31;;;;;;;6.00;4.40;;;;;;;12.26;64.68;99182.02;106117;1271;108831;-73
2022/04/25 12:16:39;;;;;;;7.80;4.50;;;;;;;12.21;64.40;99187.37;106721;1273;108864;-74
2022/04/25 12:19:13;;;;;;;6.00;4.50;;;;;;;12.27;64.44;99185.47;105974;1273;138754;-73
2022/04/25 12:21:48;;;;;;;6.40;3.90;;;;;;;12.31;64.43;99182.42;106158;1273;97828;-73
2022/04/25 12:24:23;;;;;;;7.20;4.80;;;;;;;12.35;64.34;99188.45;106302;1273;138563;-74
2022/04/25 12:26:55;;;;;;;5.80;4.20;;;;;;;12.36;64.29;99189.77;106293;1273;112080;-73
2022/04/25 12:29:27;;;;;;;5.30;4.30;;;;;;;12.38;63.89;99192.14;106317;1272;107058;-73
2022/04/25 12:32:00;;;;;;;7.30;4.30;;;;;;;12.39;64.09;99187.02;106102;1274;137701;-75